Time;durP1;ratioP1;P1;durP2;ratioP2;P2;SDS_P1;SDS_P2;PMS_P1;PMS_P2;Temp;Humidity;BMP_temperature;BMP_pressure;BME280_temperature;BME280_humidity;BME280_pressure;Samples;Min_cycle;Max_cycle;Signal;HPM_P1;HPM_P2
2023/10/08 08:09:17;;;;;;;;;21.50;20.75;;;;;24.36;46.62;102212.63;5073799;27;45463;-68
2023/10/08 08:11:45;;;;;;;;;19.50;17.75;;;;;24.88;45.11;102209.25;5055389;28;46150;-68
2023/10/08 08:14:11;;;;;;;;;23.50;21.50;;;;;25.18;44.58;102198.47;5054596;28;45532;-68
2023/10/08 08:16:37;;;;;;;;;19.75;17.75;;;;;25.42;43.67;102209.25;5054846;28;45465;-68
2023/10/08 08:19:03;;;;;;;;;19.00;19.00;;;;;25.76;42.81;102195.38;5053876;28;45421;-70
2023/10/08 08:21:30;;;;;;;;;19.25;19.25;;;;;26.00;42.71;102205.09;5053844;28;45256;-69
2023/10/08 08:24:04;;;;;;;;;19.00;16.75;;;;;26.24;41.44;102203.94;5054123;28;45327;-67
2023/10/08 08:26:39;;;;;;;;;18.50;18.00;;;;;26.46;41.21;102208.41;5055002;28;45408;-69
2023/10/08 08:29:08;;;;;;;;;19.00;18.00;;;;;26.59;40.85;102206.31;5042375;28;46343;-68
2023/10/08 08:31:35;;;;;;;;;19.75;18.75;;;;;26.66;40.75;102202.84;5054737;28;45280;-68
2023/10/08 08:34:10;;;;;;;;;17.50;17.50;;;;;26.86;40.57;102205.66;5054749;28;45299;-69
2023/10/08 08:36:39;;;;;;;;;18.50;17.75;;;;;26.94;40.03;102204.00;5054663;28;45499;-69
2023/10/08 08:39:08;;;;;;;;;21.50;20.25;;;;;27.08;40.50;102209.06;5054627;28;46277;-68
2023/10/08 08:41:37;;;;;;;;;21.75;20.25;;;;;27.01;39.77;102207.91;5054531;28;45372;-68
2023/10/08 08:46:39;;;;;;;;;18.25;16.75;;;;;27.24;39.19;102207.66;1412570;26;46105;-80
2023/10/08 08:49:08;;;;;;;;;18.75;15.50;;;;;27.44;38.53;102213.03;5065397;27;47120;-81
2023/10/08 08:51:35;;;;;;;;;20.75;16.75;;;;;27.41;39.13;102198.66;5070295;27;45532;-80
2023/10/08 08:54:06;;;;;;;;;19.00;17.50;;;;;27.56;38.95;102211.03;5086026;27;45865;-79
2023/10/08 08:56:33;;;;;;;;;19.50;18.50;;;;;27.66;37.98;102203.63;5090097;27;45489;-79
2023/10/08 08:58:59;;;;;;;;;15.50;14.00;;;;;27.56;37.97;102182.63;5091229;27;46450;-82
2023/10/08 09:01:25;;;;;;;;;14.75;14.50;;;;;27.81;38.03;102207.69;5089448;27;45385;-82
2023/10/08 09:03:50;;;;;;;;;17.75;17.75;;;;;28.00;37.51;102206.78;5058753;28;45335;-79
2023/10/08 09:06:16;;;;;;;;;17.00;16.50;;;;;28.11;37.70;102198.34;5069643;28;45529;-74
2023/10/08 09:08:42;;;;;;;;;17.00;17.00;;;;;28.14;37.12;102195.28;5065317;28;45393;-80
2023/10/08 09:11:08;;;;;;;;;14.25;12.50;;;;;28.24;37.19;102206.34;5047753;28;45365;-79
2023/10/08 09:13:35;;;;;;;;;17.25;14.25;;;;;28.34;36.98;102198.00;5061259;28;45369;-86
2023/10/08 09:16:11;;;;;;;;;13.50;13.25;;;;;28.46;36.55;102205.09;5047551;28;45616;-83
2023/10/08 09:18:36;;;;;;;;;13.00;12.25;;;;;28.64;36.76;102199.63;5050452;28;47310;-76
2023/10/08 09:21:19;;;;;;;;;12.00;12.00;;;;;28.69;36.64;102198.16;5042971;28;45564;-77
2023/10/08 09:23:50;;;;;;;;;11.75;11.75;;;;;28.58;35.38;102168.00;5038214;28;45934;-83
2023/10/08 09:26:18;;;;;;;;;13.75;11.75;;;;;28.63;35.63;102178.56;5037140;28;46764;-84
2023/10/08 09:28:46;;;;;;;;;8.00;8.00;;;;;28.90;36.26;102195.16;5060498;28;45956;-81
2023/10/08 09:31:13;;;;;;;;;10.50;10.50;;;;;28.97;35.72;102191.63;5059635;28;45560;-77
2023/10/08 09:33:39;;;;;;;;;9.25;9.25;;;;;29.01;35.43;102183.06;5037996;28;45492;-81
2023/10/08 09:36:07;;;;;;;;;8.25;8.25;;;;;29.15;35.51;102188.03;5055618;28;45182;-75
2023/10/08 09:38:36;;;;;;;;;8.00;8.00;;;;;29.28;35.02;102186.59;5033201;28;47202;-77
2023/10/08 09:41:03;;;;;;;;;12.00;8.50;;;;;29.20;35.08;102163.56;5045203;28;45477;-75
2023/10/08 09:43:29;;;;;;;;;9.50;7.75;;;;;29.35;34.79;102173.00;5045561;28;45429;-78
2023/10/08 09:46:08;;;;;;;;;7.50;7.50;;;;;29.47;34.02;102191.13;5066263;28;45246;-73
2023/10/08 09:48:37;;;;;;;;;7.25;7.25;;;;;29.50;34.20;102188.06;5067832;28;45613;-76
2023/10/08 09:51:06;;;;;;;;;8.75;8.75;;;;;29.43;33.66;102175.06;5036087;28;45582;-78
2023/10/08 09:53:40;;;;;;;;;10.75;9.00;;;;;29.59;34.97;102180.72;5040153;28;45469;-76
2023/10/08 09:56:14;;;;;;;;;6.00;6.00;;;;;29.41;33.92;102157.75;5060464;28;45442;-78
2023/10/08 09:58:42;;;;;;;;;8.25;6.75;;;;;29.56;33.83;102183.78;5056449;28;46612;-80
2023/10/08 10:01:08;;;;;;;;;9.00;6.25;;;;;29.54;34.00;102175.66;5056001;28;45335;-76
2023/10/08 10:03:36;;;;;;;;;7.00;7.00;;;;;29.53;34.30;102168.38;5055995;28;45392;-78
2023/10/08 10:06:02;;;;;;;;;5.00;5.00;;;;;29.55;33.96;102157.19;5056335;28;45611;-76
2023/10/08 10:08:35;;;;;;;;;7.75;7.75;;;;;29.82;33.80;102175.53;5055746;28;45688;-75
2023/10/08 10:11:01;;;;;;;;;6.50;6.50;;;;;29.78;33.64;102169.44;5056788;28;45609;-77
2023/10/08 10:13:44;;;;;;;;;9.00;7.50;;;;;29.82;33.36;102170.88;5054792;28;45351;-79
2023/10/08 10:16:16;;;;;;;;;9.25;7.75;;;;;30.03;33.53;102165.88;5055780;28;45357;-79
2023/10/08 10:18:46;;;;;;;;;6.50;6.50;;;;;30.03;34.00;102176.06;5054853;28;47495;-77
2023/10/08 10:21:12;;;;;;;;;8.25;6.50;;;;;30.22;33.80;102174.97;5043580;28;45344;-80
2023/10/08 10:23:42;;;;;;;;;10.50;10.50;;;;;30.40;34.18;102173.88;5056152;28;45471;-74
2023/10/08 10:26:30;;;;;;;;;17.00;16.25;;;;;30.51;33.78;102171.84;5055459;28;45288;-74
2023/10/08 10:29:11;;;;;;;;;22.25;19.25;;;;;30.67;33.90;102167.28;5055144;28;47344;-78
2023/10/08 10:31:46;;;;;;;;;10.00;8.00;;;;;30.69;32.70;102168.00;5055244;28;45315;-79
2023/10/08 10:34:16;;;;;;;;;4.25;4.25;;;;;30.75;33.55;102163.69;5055270;28;45400;-76
2023/10/08 10:36:48;;;;;;;;;8.25;6.75;;;;;30.78;33.14;102157.81;5055398;28;45348;-78
2023/10/08 10:39:16;;;;;;;;;9.00;8.00;;;;;30.80;32.45;102161.25;5055087;28;46320;-79
2023/10/08 10:41:45;;;;;;;;;8.25;8.25;;;;;30.91;32.47;102165.63;5055422;28;45478;-76
2023/10/08 10:44:17;;;;;;;;;11.75;8.25;;;;;31.04;33.86;102160.47;5055107;28;45351;-76
2023/10/08 10:46:50;;;;;;;;;7.75;7.75;;;;;31.20;33.33;102160.53;5054234;28;45537;-77
2023/10/08 10:49:22;;;;;;;;;6.25;6.25;;;;;31.40;32.95;102159.16;5054647;28;46432;-77
2023/10/08 10:51:52;;;;;;;;;5.00;5.00;;;;;31.52;32.02;102173.56;5055114;28;45410;-75
2023/10/08 10:54:23;;;;;;;;;6.00;6.00;;;;;31.71;31.94;102162.16;5060011;28;45377;-78
2023/10/08 10:57:17;;;;;;;;;7.00;7.00;;;;;31.97;31.50;102170.28;5075236;28;45934;-78
2023/10/08 10:59:52;;;;;;;;;7.75;7.75;;;;;32.17;30.95;102156.88;5057215;28;46262;-79
2023/10/08 11:02:30;;;;;;;;;4.50;4.50;;;;;32.55;30.40;102166.31;5071587;28;45508;-74
2023/10/08 11:05:01;;;;;;;;;3.25;3.25;;;;;32.91;29.51;102164.78;5046758;28;45603;-75
2023/10/08 11:07:27;;;;;;;;;5.75;5.75;;;;;33.49;29.17;102165.28;5055037;28;46171;-75
2023/10/08 11:09:55;;;;;;;;;6.00;6.00;;;;;33.93;27.37;102163.53;5054914;28;45762;-79
2023/10/08 11:12:23;;;;;;;;;7.25;5.00;;;;;34.45;27.65;102171.81;5054295;28;45472;-76
2023/10/08 11:14:51;;;;;;;;;6.00;5.75;;;;;34.90;26.64;102175.44;5044847;28;45491;-76
2023/10/08 11:17:22;;;;;;;;;4.75;4.50;;;;;35.19;26.40;102163.34;5057268;28;45354;-76
2023/10/08 11:19:48;;;;;;;;;6.25;6.25;;;;;35.65;25.89;102159.13;5051158;28;46037;-78
2023/10/08 11:22:18;;;;;;;;;6.25;6.25;;;;;36.06;25.18;102154.75;5057317;28;45459;-79
2023/10/08 11:24:48;;;;;;;;;8.00;6.00;;;;;36.45;24.61;102162.53;5072293;28;45469;-79
2023/10/08 11:27:16;;;;;;;;;7.50;7.50;;;;;36.88;24.12;102161.28;5079867;28;46054;-78
2023/10/08 11:29:43;;;;;;;;;5.75;5.75;;;;;37.28;24.22;102148.28;5072915;28;46407;-76
2023/10/08 11:32:12;;;;;;;;;7.25;6.00;;;;;37.80;22.94;102146.63;5053547;28;45409;-76
2023/10/08 11:34:39;;;;;;;;;8.00;8.00;;;;;38.44;22.85;102149.56;5052728;28;45505;-78
2023/10/08 11:37:19;;;;;;;;;6.75;6.00;;;;;39.06;21.18;102145.22;5035345;28;45262;-77
2023/10/08 11:39:46;;;;;;;;;6.50;6.00;;;;;39.70;20.71;102142.19;5037668;28;47732;-79
2023/10/08 11:44:55;;;;;;;;;6.50;6.50;;;;;41.04;20.17;102132.03;5041531;28;45518;-79
2023/10/08 11:47:25;;;;;;;;;7.00;7.00;;;;;41.82;18.82;102129.94;5055849;28;45508;-78
2023/10/08 11:49:54;;;;;;;;;6.50;6.50;;;;;42.54;18.45;102132.47;5076777;28;45368;-80
2023/10/08 11:52:23;;;;;;;;;7.25;7.25;;;;;43.06;17.28;102133.28;5057798;28;45555;-79
2023/10/08 11:54:52;;;;;;;;;7.00;7.00;;;;;43.61;17.44;102124.16;5070412;28;45320;-78
2023/10/08 11:57:21;;;;;;;;;7.50;7.50;;;;;43.94;16.88;102127.00;5074184;28;45323;-76
2023/10/08 11:59:47;;;;;;;;;9.50;7.00;;;;;44.61;16.96;102123.97;5074694;28;45404;-80
2023/10/08 12:02:16;;;;;;;;;7.75;6.00;;;;;44.92;14.97;102119.56;5070886;27;45410;-76
2023/10/08 12:04:44;;;;;;;;;6.75;5.75;;;;;45.25;15.01;102117.66;5051646;28;45588;-77
2023/10/08 12:07:10;;;;;;;;;5.25;5.25;;;;;45.59;14.72;102116.31;5051840;28;45664;-76
2023/10/08 12:09:38;;;;;;;;;11.75;8.00;;;;;45.96;15.22;102108.66;5040447;28;45789;-78
2023/10/08 12:12:09;;;;;;;;;5.00;5.00;;;;;46.06;14.69;102099.34;5072154;28;45370;-78
2023/10/08 12:14:37;;;;;;;;;4.50;4.50;;;;;46.15;14.16;102099.69;5080668;28;45631;-76
2023/10/08 12:17:11;;;;;;;;;6.00;5.00;;;;;46.39;13.97;102103.78;5081096;28;45223;-77
2023/10/08 12:19:36;;;;;;;;;6.00;5.00;;;;;46.73;13.87;102080.66;5081326;28;45543;-76
2023/10/08 12:22:02;;;;;;;;;5.75;5.00;;;;;46.91;13.45;102086.66;5076597;28;45450;-77
2023/10/08 12:24:28;;;;;;;;;3.75;2.25;;;;;47.14;13.33;102085.31;5063022;28;45205;-77
2023/10/08 12:26:54;;;;;;;;;4.50;4.50;;;;;46.80;13.37;102075.56;5076320;28;45164;-79
2023/10/08 12:29:24;;;;;;;;;4.00;4.00;;;;;47.05;13.15;102075.63;5077330;28;46186;-79
2023/10/08 12:31:53;;;;;;;;;5.25;4.75;;;;;47.39;13.21;102075.94;5056342;28;46145;-76
2023/10/08 12:34:18;;;;;;;;;6.00;6.00;;;;;47.85;13.30;102071.09;5079973;28;45453;-77
2023/10/08 12:36:45;;;;;;;;;7.25;5.50;;;;;48.15;13.25;102073.03;5061707;28;45264;-77
2023/10/08 12:39:17;;;;;;;;;5.50;5.50;;;;;48.21;13.00;102074.69;5076671;28;45645;-77
2023/10/08 12:41:43;;;;;;;;;6.00;6.00;;;;;48.47;12.73;102072.63;5068639;28;45439;-77
2023/10/08 12:44:09;;;;;;;;;6.00;6.00;;;;;48.56;12.51;102059.47;5056376;28;45452;-78
2023/10/08 12:46:34;;;;;;;;;5.00;5.00;;;;;48.49;12.33;102062.63;5057128;28;45532;-77
2023/10/08 12:49:01;;;;;;;;;5.50;4.75;;;;;48.22;12.20;102059.34;5057148;28;46056;-77
2023/10/08 12:51:31;;;;;;;;;4.00;4.00;;;;;47.50;13.02;102057.75;5057845;28;45388;-77
2023/10/08 12:54:06;;;;;;;;;4.50;4.50;;;;;46.57;13.51;102043.72;5042044;28;45235;-77
2023/10/08 12:56:48;;;;;;;;;5.00;4.00;;;;;45.88;13.89;102046.78;5079318;28;45252;-77
2023/10/08 12:59:20;;;;;;;;;4.75;4.25;;;;;45.60;14.11;102048.00;5077921;28;45377;-78
2023/10/08 13:01:55;;;;;;;;;5.00;5.00;;;;;45.91;13.94;102045.41;5077166;28;45469;-76
2023/10/08 13:04:26;;;;;;;;;4.50;4.50;;;;;46.28;13.59;102037.66;5072894;28;45318;-78
2023/10/08 13:06:56;;;;;;;;;5.50;5.50;;;;;46.66;13.71;102035.53;5051889;28;45661;-78
2023/10/08 13:09:22;;;;;;;;;9.25;6.50;;;;;46.97;13.79;102034.44;5039329;28;47123;-77
2023/10/08 13:11:47;;;;;;;;;4.75;4.75;;;;;47.46;14.34;102036.75;5056731;28;45589;-78
2023/10/08 13:14:12;;;;;;;;;5.00;5.00;;;;;47.79;13.61;102038.13;5060589;28;45461;-78
2023/10/08 13:16:38;;;;;;;;;3.50;3.50;;;;;47.96;12.85;102035.81;5058993;28;45341;-77
2023/10/08 13:19:08;;;;;;;;;5.25;4.00;;;;;48.25;12.53;102043.66;5060059;28;46147;-77
2023/10/08 13:21:33;;;;;;;;;5.00;5.00;;;;;48.52;11.99;102025.03;5041332;28;45473;-78
2023/10/08 13:24:02;;;;;;;;;4.00;4.00;;;;;48.66;12.30;102032.94;5068197;28;45342;-76
2023/10/08 13:26:30;;;;;;;;;5.00;5.00;;;;;48.75;12.29;102031.16;5065075;27;45564;-78
2023/10/08 13:28:58;;;;;;;;;4.00;4.00;;;;;48.78;12.15;102022.91;5057615;28;47509;-76
2023/10/08 13:31:24;;;;;;;;;6.00;4.00;;;;;48.94;12.07;102029.31;5056739;28;45549;-78
2023/10/08 13:33:52;;;;;;;;;4.25;4.25;;;;;49.18;11.45;102029.44;5057783;28;45338;-77
2023/10/08 13:36:17;;;;;;;;;4.75;3.75;;;;;49.32;11.92;102027.63;5056320;28;45351;-77
2023/10/08 13:38:46;;;;;;;;;3.75;3.75;;;;;49.41;12.10;102022.13;5039422;28;48098;-77
2023/10/08 13:41:20;;;;;;;;;5.75;4.25;;;;;49.41;11.70;102017.25;5057679;28;45296;-78
2023/10/08 13:43:47;;;;;;;;;4.75;3.00;;;;;49.51;11.49;102013.50;5057112;28;45481;-78
2023/10/08 13:46:17;;;;;;;;;4.00;4.00;;;;;49.55;11.54;102009.72;5052494;28;45340;-76
2023/10/08 13:48:47;;;;;;;;;2.75;2.75;;;;;49.56;11.49;102011.44;5050085;28;46301;-78
2023/10/08 13:51:13;;;;;;;;;5.75;4.00;;;;;49.48;11.63;101985.59;5060127;28;45264;-77
2023/10/08 13:53:45;;;;;;;;;1.50;1.50;;;;;49.51;11.63;102005.75;5059716;28;45531;-78
2023/10/08 13:56:11;;;;;;;;;4.25;4.25;;;;;49.54;11.90;101999.47;5080633;28;45365;-77
2023/10/08 13:58:45;;;;;;;;;5.50;4.00;;;;;49.30;12.27;101992.00;5081981;28;45552;-76
2023/10/08 14:01:18;;;;;;;;;3.25;3.25;;;;;49.35;11.56;101994.78;5064521;28;45480;-77
2023/10/08 14:03:45;;;;;;;;;6.25;3.75;;;;;49.41;11.54;101987.91;5083451;28;45306;-76
2023/10/08 14:06:11;;;;;;;;;3.25;3.25;;;;;49.42;12.21;101972.50;5083974;28;46108;-78
2023/10/08 14:08:38;;;;;;;;;4.00;2.75;;;;;49.65;11.67;101988.81;5083327;28;45687;-77
2023/10/08 14:11:04;;;;;;;;;5.50;3.00;;;;;49.55;11.94;101968.97;5085119;28;45355;-76
2023/10/08 14:13:32;;;;;;;;;4.00;4.00;;;;;49.58;11.73;101976.91;5084279;28;45215;-78
2023/10/08 14:15:58;;;;;;;;;3.75;2.75;;;;;49.47;11.93;101975.28;5083804;28;45472;-78
2023/10/08 14:18:28;;;;;;;;;4.75;2.50;;;;;49.51;11.49;101974.41;5085810;28;46322;-77
2023/10/08 14:20:54;;;;;;;;;4.00;4.00;;;;;49.36;11.53;101960.28;5085480;28;45231;-78
2023/10/08 14:23:25;;;;;;;;;3.50;2.75;;;;;49.23;11.47;101980.97;5084799;28;45360;-78
2023/10/08 14:25:51;;;;;;;;;3.00;3.00;;;;;49.07;12.04;101962.28;5084254;28;45361;-78
2023/10/08 14:28:39;;;;;;;;;1.75;1.75;;;;;48.97;11.61;101960.38;5063574;28;47537;-78
2023/10/08 14:31:09;;;;;;;;;5.50;3.50;;;;;48.99;11.47;101963.78;5081572;27;45346;-78
2023/10/08 14:33:42;;;;;;;;;4.00;3.00;;;;;48.99;12.39;101971.50;5082767;28;45319;-78
2023/10/08 14:42:54;;;;;;;;;5.00;3.25;;;;;48.65;12.49;101951.53;5084679;28;45379;-78
2023/10/08 14:44:34;;;;;;;;;4.25;3.50;;;;;48.49;11.79;101950.81;5085230;28;45511;-76
2023/10/08 14:47:00;;;;;;;;;2.50;1.75;;;;;48.41;12.48;101946.53;5062826;28;45642;-78
2023/10/08 14:49:25;;;;;;;;;5.00;4.00;;;;;48.38;12.65;101955.69;5061879;28;47415;-77
2023/10/08 14:51:53;;;;;;;;;1.25;1.25;;;;;48.28;12.64;101947.19;5085851;28;44682;-76
2023/10/08 14:54:20;;;;;;;;;3.50;3.50;;;;;48.13;12.70;101944.47;5077868;28;45232;-77
2023/10/08 14:56:46;;;;;;;;;4.75;3.75;;;;;47.93;13.05;101938.84;5082430;28;45235;-79
2023/10/08 14:59:11;;;;;;;;;6.25;3.75;;;;;47.79;12.82;101944.31;5081619;28;45536;-77
2023/10/08 15:01:37;;;;;;;;;6.50;4.00;;;;;47.40;12.89;101919.41;5080702;28;45327;-77
2023/10/08 15:04:04;;;;;;;;;3.25;3.00;;;;;47.33;12.89;101933.03;5081987;28;45644;-78
2023/10/08 15:06:31;;;;;;;;;1.75;1.75;;;;;47.16;13.31;101941.00;5081882;28;45542;-79
2023/10/08 15:08:57;;;;;;;;;7.50;3.75;;;;;47.07;13.29;101931.38;5083190;28;45491;-77
2023/10/08 15:11:23;;;;;;;;;5.25;4.00;;;;;46.91;13.15;101926.81;5084274;28;45347;-77
2023/10/08 15:13:50;;;;;;;;;4.25;3.00;;;;;46.76;13.85;101918.31;5085451;28;45222;-77
2023/10/08 15:16:22;;;;;;;;;7.00;3.25;;;;;46.38;13.65;101899.81;5085029;28;45264;-78
2023/10/08 15:18:48;;;;;;;;;7.25;7.00;;;;;46.31;14.27;101917.09;5085135;28;46013;-78
2023/10/08 15:21:15;;;;;;;;;4.50;4.50;;;;;46.00;14.08;101920.97;5086304;28;44700;-77
2023/10/08 15:23:40;;;;;;;;;4.50;3.75;;;;;45.72;13.87;101919.41;5085406;28;45338;-77
2023/10/08 15:26:06;;;;;;;;;5.25;4.25;;;;;45.66;14.38;101923.38;5084968;27;45512;-78
2023/10/08 15:28:32;;;;;;;;;5.50;2.75;;;;;45.36;14.33;101915.50;5084986;28;45925;-78
2023/10/08 15:30:58;;;;;;;;;4.50;2.50;;;;;45.22;15.01;101918.84;5083129;28;45374;-77
2023/10/08 15:33:26;;;;;;;;;5.50;3.75;;;;;45.08;14.93;101911.94;5082560;28;45486;-78
2023/10/08 15:35:52;;;;;;;;;0.50;0.00;;;;;44.87;14.73;101912.88;5082705;28;45521;-76
2023/10/08 15:38:17;;;;;;;;;3.50;3.50;;;;;44.69;14.56;101899.97;5078215;28;45646;-77
2023/10/08 15:40:44;;;;;;;;;6.25;5.00;;;;;44.50;15.31;101910.84;5055389;28;45244;-74
2023/10/08 15:43:10;;;;;;;;;5.00;4.00;;;;;44.19;15.33;101903.16;5054740;28;45435;-76
2023/10/08 15:45:37;;;;;;;;;4.00;3.00;;;;;43.83;15.67;101896.19;5054339;28;45631;-79
2023/10/08 15:48:05;;;;;;;;;3.25;3.00;;;;;43.57;15.93;101906.31;5054097;28;46000;-80
2023/10/08 15:50:32;;;;;;;;;5.50;4.25;;;;;43.24;16.18;101904.41;5047042;28;46054;-76
2023/10/08 15:52:58;;;;;;;;;6.50;6.00;;;;;42.93;16.42;101900.25;5021404;28;45395;-77
2023/10/08 15:55:25;;;;;;;;;5.00;4.00;;;;;42.56;16.65;101882.06;5056630;28;45568;-82
2023/10/08 15:57:54;;;;;;;;;5.50;4.50;;;;;42.41;17.66;101910.00;5034582;28;48404;-82
2023/10/08 16:00:20;;;;;;;;;3.50;3.50;;;;;42.01;17.96;101905.28;5037189;28;45591;-79
2023/10/08 16:02:46;;;;;;;;;3.50;3.50;;;;;41.78;17.70;101902.50;5065261;28;45542;-79
2023/10/08 16:05:14;;;;;;;;;5.00;4.25;;;;;41.63;17.57;101911.47;5052020;28;45478;-78
2023/10/08 16:07:40;;;;;;;;;6.00;4.25;;;;;41.38;18.26;101911.72;5044653;28;45746;-80
2023/10/08 16:10:06;;;;;;;;;7.00;5.25;;;;;41.17;18.24;101907.56;5050598;28;45320;-80
2023/10/08 16:12:32;;;;;;;;;8.00;4.25;;;;;41.03;18.38;101908.03;5074612;28;45319;-80
2023/10/08 16:15:00;;;;;;;;;7.50;6.50;;;;;40.86;18.56;101909.88;5064231;28;45417;-78
2023/10/08 16:17:30;;;;;;;;;6.50;5.50;;;;;40.71;18.85;101910.34;5063110;28;46257;-77
2023/10/08 16:19:58;;;;;;;;;5.50;5.00;;;;;40.51;19.19;101915.38;5064715;28;45376;-80
2023/10/08 16:22:23;;;;;;;;;5.75;4.00;;;;;40.31;19.51;101910.09;5056011;28;45431;-75
2023/10/08 16:24:53;;;;;;;;;3.00;3.00;;;;;40.11;19.25;101889.81;5042730;28;46029;-77
2023/10/08 16:27:19;;;;;;;;;5.50;4.00;;;;;39.82;19.33;101889.56;5037375;28;46703;-76
2023/10/08 16:29:44;;;;;;;;;7.00;5.75;;;;;39.74;19.73;101903.88;5068263;28;45327;-78
2023/10/08 16:32:11;;;;;;;;;4.00;4.00;;;;;39.59;20.24;101911.84;5059420;28;45333;-78
2023/10/08 16:34:37;;;;;;;;;6.75;5.75;;;;;39.26;20.39;101896.22;5060390;27;45555;-82
2023/10/08 16:37:03;;;;;;;;;5.00;5.00;;;;;39.14;21.07;101908.44;5056522;28;45469;-80
2023/10/08 16:39:30;;;;;;;;;7.00;6.00;;;;;38.94;21.11;101900.19;5057399;28;45375;-77
2023/10/08 16:41:57;;;;;;;;;5.50;5.50;;;;;38.70;21.13;101899.13;5057719;28;45374;-79
2023/10/08 16:44:22;;;;;;;;;5.25;5.25;;;;;38.44;21.80;101893.69;5039450;28;45427;-80
2023/10/08 16:46:48;;;;;;;;;5.00;5.00;;;;;38.21;22.05;101892.31;5056518;28;45470;-78
2023/10/08 16:49:14;;;;;;;;;5.25;5.00;;;;;38.03;22.29;101897.75;5056750;28;45421;-78
2023/10/08 16:51:39;;;;;;;;;5.25;5.25;;;;;37.79;22.42;101879.81;5038109;28;45313;-79
2023/10/08 16:54:18;;;;;;;;;7.00;6.25;;;;;37.74;22.55;101899.22;5059928;28;45284;-75
2023/10/08 16:56:44;;;;;;;;;5.50;5.00;;;;;37.68;22.70;101902.06;5058848;28;46221;-76
2023/10/08 16:59:13;;;;;;;;;5.50;4.25;;;;;37.52;23.29;101905.31;5059192;28;45816;-76
2023/10/08 17:01:40;;;;;;;;;5.25;5.25;;;;;37.33;23.04;101887.50;5077197;27;45255;-79
2023/10/08 17:04:06;;;;;;;;;5.00;5.00;;;;;37.30;23.28;101910.28;5059420;28;46179;-78
2023/10/08 17:06:31;;;;;;;;;6.50;5.25;;;;;37.23;23.56;101904.72;5063143;28;45905;-78
2023/10/08 17:08:56;;;;;;;;;11.00;6.50;;;;;37.13;23.98;101913.56;5061587;28;45391;-79
2023/10/08 17:11:22;;;;;;;;;7.25;6.25;;;;;37.06;24.07;101904.28;5079262;28;46012;-76
2023/10/08 17:13:47;;;;;;;;;6.50;5.00;;;;;37.02;24.11;101908.56;5077840;28;45366;-78
2023/10/08 17:16:12;;;;;;;;;6.00;6.00;;;;;36.93;24.08;101903.41;5076653;28;46050;-77
2023/10/08 17:18:38;;;;;;;;;8.00;7.00;;;;;36.86;24.23;101910.94;5041937;28;45392;-78
2023/10/08 17:21:04;;;;;;;;;10.00;7.50;;;;;36.68;24.55;101906.00;5058002;28;45321;-78
2023/10/08 17:23:30;;;;;;;;;8.25;6.75;;;;;36.56;24.53;101904.91;5056332;28;45455;-76
2023/10/08 17:25:57;;;;;;;;;7.75;7.00;;;;;36.49;24.75;101906.84;5057773;28;45360;-76
2023/10/08 17:28:24;;;;;;;;;8.25;7.00;;;;;36.34;24.84;101905.06;5056687;28;45521;-76
2023/10/08 17:30:50;;;;;;;;;13.00;9.75;;;;;36.35;25.20;101915.19;5056862;28;45245;-79
2023/10/08 17:33:15;;;;;;;;;9.00;9.00;;;;;36.23;25.17;101908.50;5056150;28;45612;-78
2023/10/08 17:35:41;;;;;;;;;8.25;8.25;;;;;36.12;25.69;101911.88;5056883;28;45417;-79
2023/10/08 17:38:10;;;;;;;;;8.50;8.50;;;;;35.99;25.86;101911.81;5056367;28;45432;-78
2023/10/08 17:40:37;;;;;;;;;12.50;9.50;;;;;35.90;26.28;101904.72;5058728;28;45382;-76
2023/10/08 17:43:04;;;;;;;;;18.50;13.75;;;;;35.77;26.78;101901.88;5057978;28;45481;-71
2023/10/08 17:45:34;;;;;;;;;15.00;10.25;;;;;35.65;27.49;101902.41;5063615;28;45536;-78
2023/10/08 17:48:00;;;;;;;;;21.00;13.50;;;;;35.58;27.57;101909.03;5037287;28;45343;-77
2023/10/08 17:50:26;;;;;;;;;15.00;13.50;;;;;35.55;27.04;101909.47;5055857;28;45437;-74
2023/10/08 17:52:52;;;;;;;;;15.50;12.75;;;;;35.49;27.35;101915.84;5054964;28;45448;-79
2023/10/08 17:55:20;;;;;;;;;17.25;14.50;;;;;35.45;27.61;101909.84;5068637;28;45520;-77
2023/10/08 17:57:46;;;;;;;;;20.75;19.00;;;;;35.21;27.70;101921.44;5075339;28;45220;-83
2023/10/08 18:00:12;;;;;;;;;22.25;17.00;;;;;35.12;27.45;101917.09;5055940;28;45441;-77
2023/10/08 18:02:40;;;;;;;;;17.00;15.00;;;;;35.10;27.49;101917.28;5075055;28;45366;-78
2023/10/08 18:05:12;;;;;;;;;17.00;16.75;;;;;34.89;27.82;101892.25;5069159;28;46198;-79
2023/10/08 18:07:39;;;;;;;;;15.25;13.50;;;;;34.95;28.05;101901.75;5053439;28;45449;-77
2023/10/08 18:10:06;;;;;;;;;11.50;11.50;;;;;34.78;27.90;101907.59;5057604;28;45307;-78
2023/10/08 18:12:31;;;;;;;;;14.50;14.50;;;;;34.73;27.80;101921.25;5052330;28;45601;-78
2023/10/08 18:14:57;;;;;;;;;13.75;13.75;;;;;34.66;28.51;101920.31;5060074;28;45486;-77
2023/10/08 18:17:23;;;;;;;;;17.50;15.50;;;;;34.55;28.93;101918.91;5055390;28;45448;-76
2023/10/08 18:19:49;;;;;;;;;14.75;13.25;;;;;34.45;28.27;101915.59;5027190;28;45360;-78
2023/10/08 18:22:15;;;;;;;;;17.50;17.50;;;;;34.41;28.49;101914.28;5045355;28;45375;-77
2023/10/08 18:24:40;;;;;;;;;15.50;14.75;;;;;34.36;28.62;101915.97;5062980;28;46257;-79
2023/10/08 18:27:09;;;;;;;;;16.00;14.75;;;;;34.33;28.69;101900.50;5036080;28;45364;-78
2023/10/08 18:29:35;;;;;;;;;15.25;15.25;;;;;34.45;28.14;101911.97;5053158;28;45396;-78
2023/10/08 18:32:00;;;;;;;;;10.25;10.25;;;;;34.38;28.56;101905.44;5054400;28;45604;-76
2023/10/08 18:34:27;;;;;;;;;15.50;15.50;;;;;34.44;28.98;101919.47;5054834;28;46305;-77
2023/10/08 18:36:53;;;;;;;;;24.75;18.00;;;;;34.36;29.11;101915.97;5054411;28;45345;-77
2023/10/08 18:39:19;;;;;;;;;21.00;20.50;;;;;34.23;29.02;101901.84;5035927;28;45633;-77
2023/10/08 18:41:46;;;;;;;;;23.75;21.00;;;;;34.36;29.17;101922.38;5063005;28;45190;-81
2023/10/08 18:44:14;;;;;;;;;20.75;20.00;;;;;34.23;29.55;101911.06;5035842;28;48038;-73
2023/10/08 18:46:41;;;;;;;;;22.75;22.75;;;;;34.17;29.69;101920.22;5045208;28;45484;-76
2023/10/08 18:49:06;;;;;;;;;20.00;18.75;;;;;34.11;29.65;101924.63;5052727;28;45783;-76
2023/10/08 18:51:33;;;;;;;;;20.75;19.25;;;;;34.00;29.52;101922.38;5054096;28;45604;-74
2023/10/08 18:53:59;;;;;;;;;23.00;19.50;;;;;33.91;30.33;101923.53;5058487;28;45488;-76
2023/10/08 18:56:25;;;;;;;;;25.25;23.50;;;;;33.85;30.15;101924.31;5054342;28;45339;-75
2023/10/08 18:58:51;;;;;;;;;21.75;21.75;;;;;33.80;30.27;101924.88;5054172;28;45353;-76
2023/10/08 19:01:17;;;;;;;;;22.25;19.75;;;;;33.75;30.33;101935.75;5053809;28;45594;-77
2023/10/08 19:03:45;;;;;;;;;22.75;22.75;;;;;33.67;30.81;101934.97;5053993;28;45423;-77
2023/10/08 19:06:11;;;;;;;;;24.25;23.25;;;;;33.66;30.58;101927.66;5052370;28;45597;-75
2023/10/08 19:08:38;;;;;;;;;24.25;22.25;;;;;33.58;30.55;101927.75;5055719;28;45537;-75
2023/10/08 19:11:11;;;;;;;;;22.75;20.50;;;;;33.47;30.84;101923.53;5059280;28;45381;-77
2023/10/08 19:13:39;;;;;;;;;21.50;20.75;;;;;33.47;30.39;101917.13;5062888;28;45619;-75
2023/10/08 19:16:07;;;;;;;;;20.25;18.75;;;;;33.39;30.98;101915.28;5039333;28;45378;-76
2023/10/08 19:18:34;;;;;;;;;27.00;24.00;;;;;33.39;31.14;101923.63;5058929;28;45502;-74
2023/10/08 19:21:00;;;;;;;;;23.00;21.25;;;;;33.34;31.23;101913.09;5065331;28;45464;-75
2023/10/08 19:23:28;;;;;;;;;21.25;20.00;;;;;33.24;31.50;101894.97;5062357;28;45396;-75
2023/10/08 19:25:55;;;;;;;;;27.25;21.50;;;;;33.27;31.82;101923.25;5053988;28;45335;-77
2023/10/08 19:28:21;;;;;;;;;26.50;24.00;;;;;33.18;31.55;101915.13;5053808;28;45529;-76
2023/10/08 19:30:48;;;;;;;;;25.00;21.00;;;;;33.08;31.71;101920.13;5061501;28;45383;-80
2023/10/08 19:33:15;;;;;;;;;23.75;21.00;;;;;33.05;31.39;101916.69;5053429;28;46121;-77
2023/10/08 19:35:44;;;;;;;;;24.50;22.50;;;;;33.02;31.36;101921.72;5034747;28;45496;-76
2023/10/08 19:38:12;;;;;;;;;20.50;18.75;;;;;33.00;31.32;101918.31;5054220;28;45382;-76
2023/10/08 19:40:39;;;;;;;;;25.75;23.50;;;;;33.01;31.75;101929.19;5035773;28;47029;-82
2023/10/08 19:43:04;;;;;;;;;19.75;19.75;;;;;32.98;31.88;101928.75;5061891;28;45492;-78